sensor_id;sensor_type;location;lat;lon;timestamp;P1;durP1;ratioP1;P2;durP2;ratioP2
46216;SDS011;47258;59.424;13.482;2023-07-31T00:00:14;14.35;;;2.45;;
46216;SDS011;47258;59.424;13.482;2023-07-31T00:02:41;7.53;;;2.55;;
46216;SDS011;47258;59.424;13.482;2023-07-31T00:05:08;7.45;;;2.05;;
46216;SDS011;47258;59.424;13.482;2023-07-31T00:07:35;24.23;;;3.55;;
46216;SDS011;47258;59.424;13.482;2023-07-31T00:10:04;7.43;;;2.08;;
46216;SDS011;47258;59.424;13.482;2023-07-31T00:12:32;4.68;;;2.05;;
46216;SDS011;47258;59.424;13.482;2023-07-31T00:14:59;11.20;;;2.40;;
46216;SDS011;47258;59.424;13.482;2023-07-31T00:17:26;6.60;;;2.22;;
46216;SDS011;47258;59.424;13.482;2023-07-31T00:19:53;3.20;;;1.85;;
46216;SDS011;47258;59.424;13.482;2023-07-31T00:22:20;10.23;;;3.75;;
46216;SDS011;47258;59.424;13.482;2023-07-31T00:24:47;6.70;;;2.30;;
46216;SDS011;47258;59.424;13.482;2023-07-31T00:27:16;5.43;;;2.10;;
46216;SDS011;47258;59.424;13.482;2023-07-31T00:29:43;4.63;;;2.28;;
46216;SDS011;47258;59.424;13.482;2023-07-31T00:32:10;7.10;;;1.70;;
46216;SDS011;47258;59.424;13.482;2023-07-31T00:34:37;5.03;;;2.22;;
46216;SDS011;47258;59.424;13.482;2023-07-31T00:37:04;6.07;;;2.28;;
46216;SDS011;47258;59.424;13.482;2023-07-31T00:39:33;7.50;;;1.90;;
46216;SDS011;47258;59.424;13.482;2023-07-31T00:42:01;12.98;;;2.45;;
46216;SDS011;47258;59.424;13.482;2023-07-31T00:44:29;4.80;;;2.20;;
46216;SDS011;47258;59.424;13.482;2023-07-31T00:46:56;13.65;;;2.60;;
46216;SDS011;47258;59.424;13.482;2023-07-31T00:49:24;8.18;;;1.80;;
46216;SDS011;47258;59.424;13.482;2023-07-31T00:51:52;5.72;;;1.92;;
46216;SDS011;47258;59.424;13.482;2023-07-31T00:54:22;5.38;;;1.88;;
46216;SDS011;47258;59.424;13.482;2023-07-31T00:56:49;5.30;;;1.90;;
46216;SDS011;47258;59.424;13.482;2023-07-31T01:01:47;11.45;;;2.00;;
46216;SDS011;47258;59.424;13.482;2023-07-31T01:04:14;6.32;;;2.00;;
46216;SDS011;47258;59.424;13.482;2023-07-31T01:06:45;6.45;;;1.88;;
46216;SDS011;47258;59.424;13.482;2023-07-31T01:09:25;8.50;;;2.53;;
46216;SDS011;47258;59.424;13.482;2023-07-31T01:12:01;3.75;;;2.58;;
46216;SDS011;47258;59.424;13.482;2023-07-31T01:14:29;9.02;;;2.63;;
46216;SDS011;47258;59.424;13.482;2023-07-31T01:16:58;7.00;;;1.83;;
46216;SDS011;47258;59.424;13.482;2023-07-31T01:19:25;5.97;;;1.67;;
46216;SDS011;47258;59.424;13.482;2023-07-31T01:24:49;3.65;;;2.30;;
46216;SDS011;47258;59.424;13.482;2023-07-31T01:27:26;6.67;;;2.50;;
46216;SDS011;47258;59.424;13.482;2023-07-31T01:29:59;12.10;;;2.33;;
46216;SDS011;47258;59.424;13.482;2023-07-31T01:32:35;7.82;;;2.00;;
46216;SDS011;47258;59.424;13.482;2023-07-31T01:35:05;12.23;;;2.05;;
46216;SDS011;47258;59.424;13.482;2023-07-31T01:37:33;6.05;;;2.83;;
46216;SDS011;47258;59.424;13.482;2023-07-31T01:40:00;4.63;;;2.47;;
46216;SDS011;47258;59.424;13.482;2023-07-31T01:42:29;6.75;;;2.35;;
46216;SDS011;47258;59.424;13.482;2023-07-31T01:44:56;7.25;;;2.20;;
46216;SDS011;47258;59.424;13.482;2023-07-31T01:47:23;2.00;;;1.65;;
46216;SDS011;47258;59.424;13.482;2023-07-31T01:49:50;10.15;;;2.88;;
46216;SDS011;47258;59.424;13.482;2023-07-31T01:52:17;6.95;;;2.65;;
46216;SDS011;47258;59.424;13.482;2023-07-31T01:54:44;10.75;;;3.00;;
46216;SDS011;47258;59.424;13.482;2023-07-31T01:57:11;5.63;;;2.50;;
46216;SDS011;47258;59.424;13.482;2023-07-31T01:59:40;7.38;;;2.85;;
46216;SDS011;47258;59.424;13.482;2023-07-31T02:02:07;5.15;;;3.33;;
46216;SDS011;47258;59.424;13.482;2023-07-31T02:04:34;7.20;;;2.55;;
46216;SDS011;47258;59.424;13.482;2023-07-31T02:07:01;7.28;;;2.30;;
46216;SDS011;47258;59.424;13.482;2023-07-31T02:09:28;3.97;;;2.10;;
46216;SDS011;47258;59.424;13.482;2023-07-31T02:11:55;9.93;;;3.13;;
46216;SDS011;47258;59.424;13.482;2023-07-31T02:14:22;10.15;;;2.38;;
46216;SDS011;47258;59.424;13.482;2023-07-31T02:16:51;4.90;;;2.65;;
46216;SDS011;47258;59.424;13.482;2023-07-31T02:19:18;8.80;;;2.83;;
46216;SDS011;47258;59.424;13.482;2023-07-31T02:21:45;6.18;;;2.10;;
46216;SDS011;47258;59.424;13.482;2023-07-31T02:24:12;5.82;;;2.38;;
46216;SDS011;47258;59.424;13.482;2023-07-31T02:26:39;8.77;;;2.58;;
46216;SDS011;47258;59.424;13.482;2023-07-31T02:29:07;3.55;;;1.92;;
46216;SDS011;47258;59.424;13.482;2023-07-31T02:31:34;5.93;;;1.63;;
46216;SDS011;47258;59.424;13.482;2023-07-31T02:34:02;5.57;;;1.92;;
46216;SDS011;47258;59.424;13.482;2023-07-31T02:36:29;12.10;;;2.30;;
46216;SDS011;47258;59.424;13.482;2023-07-31T02:38:57;6.68;;;3.05;;
46216;SDS011;47258;59.424;13.482;2023-07-31T02:41:24;6.47;;;1.90;;
46216;SDS011;47258;59.424;13.482;2023-07-31T02:43:51;7.80;;;3.55;;
46216;SDS011;47258;59.424;13.482;2023-07-31T02:46:18;6.30;;;2.92;;
46216;SDS011;47258;59.424;13.482;2023-07-31T02:48:49;6.10;;;2.33;;
46216;SDS011;47258;59.424;13.482;2023-07-31T02:51:17;10.43;;;3.05;;
46216;SDS011;47258;59.424;13.482;2023-07-31T02:53:46;7.88;;;2.58;;
46216;SDS011;47258;59.424;13.482;2023-07-31T02:56:13;5.65;;;1.73;;
46216;SDS011;47258;59.424;13.482;2023-07-31T02:58:40;5.55;;;2.67;;
46216;SDS011;47258;59.424;13.482;2023-07-31T03:01:07;9.23;;;2.63;;
46216;SDS011;47258;59.424;13.482;2023-07-31T03:03:34;6.85;;;2.20;;
46216;SDS011;47258;59.424;13.482;2023-07-31T03:06:01;8.43;;;2.97;;
46216;SDS011;47258;59.424;13.482;2023-07-31T03:08:30;6.97;;;1.70;;
46216;SDS011;47258;59.424;13.482;2023-07-31T03:10:57;3.58;;;2.65;;
46216;SDS011;47258;59.424;13.482;2023-07-31T03:13:24;11.23;;;2.65;;
46216;SDS011;47258;59.424;13.482;2023-07-31T03:15:51;4.15;;;2.55;;
46216;SDS011;47258;59.424;13.482;2023-07-31T03:18:18;15.55;;;3.25;;
46216;SDS011;47258;59.424;13.482;2023-07-31T03:20:45;3.30;;;2.45;;
46216;SDS011;47258;59.424;13.482;2023-07-31T03:23:12;4.15;;;2.00;;
46216;SDS011;47258;59.424;13.482;2023-07-31T03:25:41;6.22;;;2.70;;
46216;SDS011;47258;59.424;13.482;2023-07-31T03:28:22;5.38;;;2.35;;
46216;SDS011;47258;59.424;13.482;2023-07-31T03:30:49;4.75;;;2.60;;
46216;SDS011;47258;59.424;13.482;2023-07-31T03:33:17;6.75;;;3.38;;
46216;SDS011;47258;59.424;13.482;2023-07-31T03:35:44;13.48;;;3.47;;
46216;SDS011;47258;59.424;13.482;2023-07-31T03:38:11;3.20;;;2.10;;
46216;SDS011;47258;59.424;13.482;2023-07-31T03:40:38;3.63;;;2.47;;
46216;SDS011;47258;59.424;13.482;2023-07-31T03:43:07;11.13;;;2.40;;
46216;SDS011;47258;59.424;13.482;2023-07-31T03:45:34;17.33;;;3.03;;
46216;SDS011;47258;59.424;13.482;2023-07-31T03:48:01;7.72;;;2.42;;
46216;SDS011;47258;59.424;13.482;2023-07-31T03:50:28;7.53;;;2.15;;
46216;SDS011;47258;59.424;13.482;2023-07-31T03:52:55;6.47;;;2.35;;
46216;SDS011;47258;59.424;13.482;2023-07-31T03:55:22;3.47;;;2.10;;
46216;SDS011;47258;59.424;13.482;2023-07-31T03:57:51;9.35;;;2.80;;
46216;SDS011;47258;59.424;13.482;2023-07-31T04:00:18;9.18;;;2.30;;
46216;SDS011;47258;59.424;13.482;2023-07-31T04:02:45;6.57;;;2.28;;
46216;SDS011;47258;59.424;13.482;2023-07-31T04:05:12;8.30;;;2.92;;
46216;SDS011;47258;59.424;13.482;2023-07-31T04:07:39;12.38;;;2.22;;
46216;SDS011;47258;59.424;13.482;2023-07-31T04:10:07;2.58;;;2.10;;
46216;SDS011;47258;59.424;13.482;2023-07-31T04:12:34;8.73;;;2.28;;
46216;SDS011;47258;59.424;13.482;2023-07-31T04:15:03;7.97;;;2.25;;
46216;SDS011;47258;59.424;13.482;2023-07-31T04:17:30;3.08;;;1.98;;
46216;SDS011;47258;59.424;13.482;2023-07-31T04:19:57;7.70;;;2.95;;
46216;SDS011;47258;59.424;13.482;2023-07-31T04:22:24;3.08;;;2.10;;
46216;SDS011;47258;59.424;13.482;2023-07-31T04:24:51;7.25;;;2.45;;
46216;SDS011;47258;59.424;13.482;2023-07-31T04:27:18;11.38;;;2.05;;
46216;SDS011;47258;59.424;13.482;2023-07-31T04:29:45;8.30;;;1.95;;
46216;SDS011;47258;59.424;13.482;2023-07-31T04:32:14;4.40;;;2.30;;
46216;SDS011;47258;59.424;13.482;2023-07-31T04:34:41;5.38;;;2.38;;
46216;SDS011;47258;59.424;13.482;2023-07-31T04:37:08;12.73;;;2.33;;
46216;SDS011;47258;59.424;13.482;2023-07-31T04:39:36;16.13;;;2.35;;
46216;SDS011;47258;59.424;13.482;2023-07-31T04:42:03;3.63;;;2.00;;
46216;SDS011;47258;59.424;13.482;2023-07-31T04:44:30;6.97;;;2.35;;
46216;SDS011;47258;59.424;13.482;2023-07-31T04:46:57;3.75;;;2.40;;
46216;SDS011;47258;59.424;13.482;2023-07-31T04:49:25;7.60;;;2.92;;
46216;SDS011;47258;59.424;13.482;2023-07-31T04:51:53;5.60;;;2.50;;
46216;SDS011;47258;59.424;13.482;2023-07-31T04:54:20;2.05;;;1.85;;
46216;SDS011;47258;59.424;13.482;2023-07-31T04:56:47;8.43;;;2.30;;
46216;SDS011;47258;59.424;13.482;2023-07-31T04:59:14;5.30;;;2.05;;
46216;SDS011;47258;59.424;13.482;2023-07-31T05:01:41;5.53;;;2.50;;
46216;SDS011;47258;59.424;13.482;2023-07-31T05:04:08;6.57;;;2.53;;
46216;SDS011;47258;59.424;13.482;2023-07-31T05:06:36;12.23;;;2.58;;
46216;SDS011;47258;59.424;13.482;2023-07-31T05:09:03;7.70;;;2.03;;
46216;SDS011;47258;59.424;13.482;2023-07-31T05:11:30;4.82;;;1.75;;
46216;SDS011;47258;59.424;13.482;2023-07-31T05:13:57;4.20;;;1.90;;
46216;SDS011;47258;59.424;13.482;2023-07-31T05:16:24;7.32;;;2.05;;
46216;SDS011;47258;59.424;13.482;2023-07-31T05:18:51;4.93;;;1.70;;
46216;SDS011;47258;59.424;13.482;2023-07-31T05:21:18;4.65;;;1.70;;
46216;SDS011;47258;59.424;13.482;2023-07-31T05:23:47;10.85;;;2.15;;
46216;SDS011;47258;59.424;13.482;2023-07-31T05:26:14;6.32;;;1.95;;
46216;SDS011;47258;59.424;13.482;2023-07-31T05:28:41;5.78;;;2.03;;
46216;SDS011;47258;59.424;13.482;2023-07-31T05:31:08;4.30;;;1.83;;
46216;SDS011;47258;59.424;13.482;2023-07-31T05:33:35;8.98;;;1.77;;
46216;SDS011;47258;59.424;13.482;2023-07-31T05:36:02;3.08;;;1.23;;
46216;SDS011;47258;59.424;13.482;2023-07-31T05:38:29;3.63;;;1.27;;
46216;SDS011;47258;59.424;13.482;2023-07-31T05:40:58;3.83;;;0.93;;
46216;SDS011;47258;59.424;13.482;2023-07-31T05:43:25;4.95;;;1.20;;
46216;SDS011;47258;59.424;13.482;2023-07-31T05:45:52;3.63;;;1.42;;
46216;SDS011;47258;59.424;13.482;2023-07-31T05:48:19;8.82;;;1.83;;
46216;SDS011;47258;59.424;13.482;2023-07-31T05:50:46;6.90;;;1.75;;
46216;SDS011;47258;59.424;13.482;2023-07-31T05:53:13;4.90;;;2.25;;
46216;SDS011;47258;59.424;13.482;2023-07-31T05:55:40;2.78;;;1.42;;
46216;SDS011;47258;59.424;13.482;2023-07-31T05:58:08;2.95;;;1.35;;
46216;SDS011;47258;59.424;13.482;2023-07-31T06:00:35;6.22;;;1.58;;
46216;SDS011;47258;59.424;13.482;2023-07-31T06:03:02;5.53;;;1.20;;
46216;SDS011;47258;59.424;13.482;2023-07-31T06:05:30;2.72;;;1.25;;
46216;SDS011;47258;59.424;13.482;2023-07-31T06:07:57;3.60;;;1.25;;
46216;SDS011;47258;59.424;13.482;2023-07-31T06:10:24;4.70;;;1.85;;
46216;SDS011;47258;59.424;13.482;2023-07-31T06:12:51;8.73;;;2.05;;
46216;SDS011;47258;59.424;13.482;2023-07-31T06:15:20;2.00;;;1.13;;
46216;SDS011;47258;59.424;13.482;2023-07-31T06:17:47;4.68;;;1.55;;
46216;SDS011;47258;59.424;13.482;2023-07-31T06:20:14;5.90;;;1.63;;
46216;SDS011;47258;59.424;13.482;2023-07-31T06:22:41;2.90;;;1.38;;
46216;SDS011;47258;59.424;13.482;2023-07-31T06:25:08;9.75;;;2.47;;
46216;SDS011;47258;59.424;13.482;2023-07-31T06:27:35;6.90;;;1.73;;
46216;SDS011;47258;59.424;13.482;2023-07-31T06:30:03;16.67;;;4.15;;
46216;SDS011;47258;59.424;13.482;2023-07-31T06:32:32;8.20;;;2.35;;
46216;SDS011;47258;59.424;13.482;2023-07-31T06:34:59;5.57;;;2.15;;
46216;SDS011;47258;59.424;13.482;2023-07-31T06:37:26;8.02;;;2.33;;
46216;SDS011;47258;59.424;13.482;2023-07-31T06:39:53;9.95;;;3.45;;
46216;SDS011;47258;59.424;13.482;2023-07-31T06:42:20;7.05;;;2.35;;
46216;SDS011;47258;59.424;13.482;2023-07-31T06:44:47;9.63;;;2.78;;
46216;SDS011;47258;59.424;13.482;2023-07-31T06:47:14;6.70;;;2.17;;
46216;SDS011;47258;59.424;13.482;2023-07-31T06:49:43;6.65;;;3.08;;
46216;SDS011;47258;59.424;13.482;2023-07-31T06:52:10;6.32;;;2.80;;
46216;SDS011;47258;59.424;13.482;2023-07-31T06:54:37;6.50;;;3.42;;
46216;SDS011;47258;59.424;13.482;2023-07-31T06:57:04;3.30;;;2.65;;
46216;SDS011;47258;59.424;13.482;2023-07-31T06:59:31;5.82;;;2.72;;
46216;SDS011;47258;59.424;13.482;2023-07-31T07:01:58;6.90;;;2.80;;
46216;SDS011;47258;59.424;13.482;2023-07-31T07:04:25;5.30;;;2.35;;
46216;SDS011;47258;59.424;13.482;2023-07-31T07:06:54;5.28;;;2.03;;
46216;SDS011;47258;59.424;13.482;2023-07-31T07:09:21;4.03;;;1.95;;
46216;SDS011;47258;59.424;13.482;2023-07-31T07:11:48;3.10;;;1.88;;
46216;SDS011;47258;59.424;13.482;2023-07-31T07:14:15;5.88;;;2.10;;
46216;SDS011;47258;59.424;13.482;2023-07-31T07:16:42;5.38;;;1.83;;
46216;SDS011;47258;59.424;13.482;2023-07-31T07:19:09;3.72;;;2.17;;
46216;SDS011;47258;59.424;13.482;2023-07-31T07:21:36;3.72;;;2.08;;
46216;SDS011;47258;59.424;13.482;2023-07-31T07:24:05;7.30;;;2.75;;
46216;SDS011;47258;59.424;13.482;2023-07-31T07:26:32;4.68;;;2.33;;
46216;SDS011;47258;59.424;13.482;2023-07-31T07:28:59;2.10;;;1.77;;
46216;SDS011;47258;59.424;13.482;2023-07-31T07:31:27;5.28;;;1.40;;
46216;SDS011;47258;59.424;13.482;2023-07-31T07:33:54;4.50;;;1.85;;
46216;SDS011;47258;59.424;13.482;2023-07-31T07:36:22;3.22;;;1.55;;
46216;SDS011;47258;59.424;13.482;2023-07-31T07:38:49;1.58;;;1.30;;
46216;SDS011;47258;59.424;13.482;2023-07-31T07:41:17;2.35;;;1.30;;
46216;SDS011;47258;59.424;13.482;2023-07-31T07:43:44;3.30;;;1.42;;
46216;SDS011;47258;59.424;13.482;2023-07-31T07:46:11;3.60;;;1.13;;
46216;SDS011;47258;59.424;13.482;2023-07-31T07:48:38;4.38;;;1.20;;
46216;SDS011;47258;59.424;13.482;2023-07-31T07:51:05;2.20;;;1.55;;
46216;SDS011;47258;59.424;13.482;2023-07-31T07:53:32;2.42;;;1.60;;
46216;SDS011;47258;59.424;13.482;2023-07-31T07:55:59;3.55;;;1.55;;
46216;SDS011;47258;59.424;13.482;2023-07-31T07:58:28;1.73;;;1.23;;
46216;SDS011;47258;59.424;13.482;2023-07-31T08:00:55;1.33;;;0.98;;
46216;SDS011;47258;59.424;13.482;2023-07-31T08:03:22;3.50;;;1.08;;
46216;SDS011;47258;59.424;13.482;2023-07-31T08:05:49;6.18;;;1.40;;
46216;SDS011;47258;59.424;13.482;2023-07-31T08:08:16;1.88;;;1.30;;
46216;SDS011;47258;59.424;13.482;2023-07-31T08:10:43;5.93;;;1.83;;
46216;SDS011;47258;59.424;13.482;2023-07-31T08:13:10;1.50;;;1.10;;
46216;SDS011;47258;59.424;13.482;2023-07-31T08:15:39;4.10;;;1.25;;
46216;SDS011;47258;59.424;13.482;2023-07-31T08:18:07;4.38;;;1.40;;
46216;SDS011;47258;59.424;13.482;2023-07-31T08:20:35;3.55;;;1.20;;
46216;SDS011;47258;59.424;13.482;2023-07-31T08:23:02;4.47;;;1.50;;
46216;SDS011;47258;59.424;13.482;2023-07-31T08:25:29;3.72;;;1.05;;
46216;SDS011;47258;59.424;13.482;2023-07-31T08:27:56;4.32;;;2.30;;
46216;SDS011;47258;59.424;13.482;2023-07-31T08:30:23;5.70;;;1.50;;
46216;SDS011;47258;59.424;13.482;2023-07-31T08:32:54;5.80;;;1.40;;
46216;SDS011;47258;59.424;13.482;2023-07-31T08:35:21;1.42;;;1.20;;
46216;SDS011;47258;59.424;13.482;2023-07-31T08:37:48;4.57;;;2.03;;
46216;SDS011;47258;59.424;13.482;2023-07-31T08:40:15;2.28;;;1.20;;
46216;SDS011;47258;59.424;13.482;2023-07-31T08:42:43;3.80;;;1.40;;
46216;SDS011;47258;59.424;13.482;2023-07-31T08:45:13;3.33;;;1.35;;
46216;SDS011;47258;59.424;13.482;2023-07-31T08:47:42;2.15;;;0.88;;
46216;SDS011;47258;59.424;13.482;2023-07-31T08:50:13;2.88;;;0.98;;
46216;SDS011;47258;59.424;13.482;2023-07-31T08:52:41;3.80;;;1.02;;
46216;SDS011;47258;59.424;13.482;2023-07-31T08:55:08;4.93;;;1.50;;
46216;SDS011;47258;59.424;13.482;2023-07-31T08:57:36;2.63;;;1.33;;
46216;SDS011;47258;59.424;13.482;2023-07-31T09:00:05;2.05;;;1.70;;
46216;SDS011;47258;59.424;13.482;2023-07-31T09:05:03;4.05;;;3.38;;
46216;SDS011;47258;59.424;13.482;2023-07-31T09:07:33;7.47;;;2.80;;
46216;SDS011;47258;59.424;13.482;2023-07-31T09:10:01;4.82;;;2.78;;
46216;SDS011;47258;59.424;13.482;2023-07-31T09:12:28;4.80;;;2.72;;
46216;SDS011;47258;59.424;13.482;2023-07-31T09:14:55;5.88;;;2.22;;
46216;SDS011;47258;59.424;13.482;2023-07-31T09:17:29;3.50;;;1.58;;
46216;SDS011;47258;59.424;13.482;2023-07-31T09:19:57;3.90;;;1.50;;
46216;SDS011;47258;59.424;13.482;2023-07-31T09:22:34;3.28;;;1.48;;
46216;SDS011;47258;59.424;13.482;2023-07-31T09:25:13;2.85;;;1.20;;
46216;SDS011;47258;59.424;13.482;2023-07-31T09:27:48;4.57;;;1.60;;
46216;SDS011;47258;59.424;13.482;2023-07-31T09:30:17;5.35;;;1.60;;
46216;SDS011;47258;59.424;13.482;2023-07-31T09:32:45;6.75;;;1.98;;
46216;SDS011;47258;59.424;13.482;2023-07-31T09:35:14;4.03;;;2.25;;
46216;SDS011;47258;59.424;13.482;2023-07-31T09:37:49;2.92;;;1.35;;
46216;SDS011;47258;59.424;13.482;2023-07-31T09:40:26;1.20;;;1.10;;
46216;SDS011;47258;59.424;13.482;2023-07-31T09:42:55;3.90;;;1.80;;
46216;SDS011;47258;59.424;13.482;2023-07-31T09:45:23;2.78;;;1.35;;
46216;SDS011;47258;59.424;13.482;2023-07-31T09:47:51;2.63;;;1.30;;
46216;SDS011;47258;59.424;13.482;2023-07-31T09:50:19;1.23;;;1.08;;
46216;SDS011;47258;59.424;13.482;2023-07-31T09:52:47;3.22;;;1.40;;
46216;SDS011;47258;59.424;13.482;2023-07-31T09:55:15;1.02;;;0.90;;
46216;SDS011;47258;59.424;13.482;2023-07-31T09:57:44;2.38;;;1.45;;
46216;SDS011;47258;59.424;13.482;2023-07-31T10:00:13;7.05;;;1.67;;
46216;SDS011;47258;59.424;13.482;2023-07-31T10:02:42;4.13;;;1.50;;
46216;SDS011;47258;59.424;13.482;2023-07-31T10:05:12;2.60;;;1.00;;
46216;SDS011;47258;59.424;13.482;2023-07-31T10:07:41;1.10;;;1.00;;
46216;SDS011;47258;59.424;13.482;2023-07-31T10:10:10;4.82;;;1.75;;
46216;SDS011;47258;59.424;13.482;2023-07-31T10:12:40;2.88;;;1.20;;
46216;SDS011;47258;59.424;13.482;2023-07-31T10:15:10;3.45;;;1.98;;
46216;SDS011;47258;59.424;13.482;2023-07-31T10:17:37;2.55;;;1.00;;
46216;SDS011;47258;59.424;13.482;2023-07-31T10:20:06;1.93;;;1.00;;
46216;SDS011;47258;59.424;13.482;2023-07-31T10:22:34;2.87;;;0.87;;
46216;SDS011;47258;59.424;13.482;2023-07-31T10:25:03;4.13;;;0.80;;
46216;SDS011;47258;59.424;13.482;2023-07-31T10:27:31;1.15;;;0.80;;
46216;SDS011;47258;59.424;13.482;2023-07-31T10:30:01;2.67;;;1.20;;
46216;SDS011;47258;59.424;13.482;2023-07-31T10:32:32;1.73;;;0.95;;
46216;SDS011;47258;59.424;13.482;2023-07-31T10:34:59;4.38;;;1.25;;
46216;SDS011;47258;59.424;13.482;2023-07-31T10:37:28;1.23;;;0.73;;
46216;SDS011;47258;59.424;13.482;2023-07-31T10:39:59;4.30;;;0.98;;
46216;SDS011;47258;59.424;13.482;2023-07-31T10:42:29;4.93;;;1.00;;
46216;SDS011;47258;59.424;13.482;2023-07-31T10:47:26;1.33;;;0.88;;
46216;SDS011;47258;59.424;13.482;2023-07-31T10:49:53;1.27;;;0.70;;
46216;SDS011;47258;59.424;13.482;2023-07-31T10:52:38;1.20;;;0.82;;
46216;SDS011;47258;59.424;13.482;2023-07-31T10:55:15;3.05;;;0.68;;
46216;SDS011;47258;59.424;13.482;2023-07-31T10:57:48;0.63;;;0.60;;
46216;SDS011;47258;59.424;13.482;2023-07-31T11:00:20;2.05;;;0.50;;
46216;SDS011;47258;59.424;13.482;2023-07-31T11:03:03;1.13;;;0.57;;
46216;SDS011;47258;59.424;13.482;2023-07-31T11:05:41;4.07;;;0.88;;
46216;SDS011;47258;59.424;13.482;2023-07-31T11:08:13;2.45;;;1.27;;
46216;SDS011;47258;59.424;13.482;2023-07-31T11:10:42;1.90;;;0.90;;
46216;SDS011;47258;59.424;13.482;2023-07-31T11:13:10;3.08;;;1.05;;
46216;SDS011;47258;59.424;13.482;2023-07-31T11:15:37;2.15;;;0.70;;
46216;SDS011;47258;59.424;13.482;2023-07-31T11:18:06;1.35;;;0.77;;
46216;SDS011;47258;59.424;13.482;2023-07-31T11:20:35;0.85;;;0.80;;
46216;SDS011;47258;59.424;13.482;2023-07-31T11:23:05;0.80;;;0.60;;
46216;SDS011;47258;59.424;13.482;2023-07-31T11:25:34;2.28;;;0.85;;
46216;SDS011;47258;59.424;13.482;2023-07-31T11:28:04;0.88;;;0.88;;
46216;SDS011;47258;59.424;13.482;2023-07-31T11:30:33;3.03;;;0.50;;
46216;SDS011;47258;59.424;13.482;2023-07-31T11:33:01;1.75;;;1.02;;
46216;SDS011;47258;59.424;13.482;2023-07-31T11:35:31;1.03;;;0.83;;
46216;SDS011;47258;59.424;13.482;2023-07-31T11:37:59;2.58;;;0.77;;
46216;SDS011;47258;59.424;13.482;2023-07-31T11:40:27;1.92;;;0.77;;
46216;SDS011;47258;59.424;13.482;2023-07-31T11:42:55;1.95;;;0.90;;
46216;SDS011;47258;59.424;13.482;2023-07-31T11:45:24;3.58;;;1.45;;
46216;SDS011;47258;59.424;13.482;2023-07-31T11:47:54;1.50;;;0.75;;
46216;SDS011;47258;59.424;13.482;2023-07-31T11:50:22;1.67;;;0.95;;
46216;SDS011;47258;59.424;13.482;2023-07-31T11:52:53;0.75;;;0.60;;
46216;SDS011;47258;59.424;13.482;2023-07-31T11:55:23;1.05;;;0.95;;
46216;SDS011;47258;59.424;13.482;2023-07-31T11:57:50;1.02;;;0.70;;
46216;SDS011;47258;59.424;13.482;2023-07-31T12:00:18;1.80;;;0.95;;
46216;SDS011;47258;59.424;13.482;2023-07-31T12:02:46;2.17;;;0.75;;
46216;SDS011;47258;59.424;13.482;2023-07-31T12:05:14;1.25;;;0.63;;
46216;SDS011;47258;59.424;13.482;2023-07-31T12:07:44;1.25;;;0.70;;
46216;SDS011;47258;59.424;13.482;2023-07-31T12:10:23;1.73;;;0.90;;
46216;SDS011;47258;59.424;13.482;2023-07-31T12:15:29;1.13;;;0.80;;
46216;SDS011;47258;59.424;13.482;2023-07-31T12:17:58;1.13;;;0.82;;
46216;SDS011;47258;59.424;13.482;2023-07-31T12:20:25;1.70;;;0.90;;
46216;SDS011;47258;59.424;13.482;2023-07-31T12:22:55;0.55;;;0.55;;
46216;SDS011;47258;59.424;13.482;2023-07-31T12:25:29;0.88;;;0.70;;
46216;SDS011;47258;59.424;13.482;2023-07-31T12:28:04;4.10;;;0.75;;
46216;SDS011;47258;59.424;13.482;2023-07-31T12:30:36;1.83;;;1.05;;
46216;SDS011;47258;59.424;13.482;2023-07-31T12:33:05;1.40;;;0.97;;
46216;SDS011;47258;59.424;13.482;2023-07-31T12:35:36;1.30;;;0.60;;
46216;SDS011;47258;59.424;13.482;2023-07-31T12:38:04;1.83;;;1.08;;
46216;SDS011;47258;59.424;13.482;2023-07-31T12:40:33;3.22;;;1.15;;
46216;SDS011;47258;59.424;13.482;2023-07-31T12:43:02;1.00;;;0.50;;
46216;SDS011;47258;59.424;13.482;2023-07-31T12:45:29;2.42;;;1.58;;
46216;SDS011;47258;59.424;13.482;2023-07-31T12:47:57;2.38;;;1.50;;
46216;SDS011;47258;59.424;13.482;2023-07-31T12:50:24;1.40;;;0.68;;
46216;SDS011;47258;59.424;13.482;2023-07-31T12:52:52;2.97;;;1.65;;
46216;SDS011;47258;59.424;13.482;2023-07-31T12:55:20;1.77;;;0.90;;
46216;SDS011;47258;59.424;13.482;2023-07-31T12:57:48;0.70;;;0.70;;
46216;SDS011;47258;59.424;13.482;2023-07-31T13:00:16;2.97;;;0.80;;
46216;SDS011;47258;59.424;13.482;2023-07-31T13:02:43;3.83;;;0.63;;
46216;SDS011;47258;59.424;13.482;2023-07-31T13:05:10;1.13;;;1.08;;
46216;SDS011;47258;59.424;13.482;2023-07-31T13:07:38;3.88;;;0.95;;
46216;SDS011;47258;59.424;13.482;2023-07-31T13:10:06;1.08;;;0.77;;
46216;SDS011;47258;59.424;13.482;2023-07-31T13:12:33;2.40;;;1.15;;
46216;SDS011;47258;59.424;13.482;2023-07-31T13:15:02;1.75;;;0.82;;
46216;SDS011;47258;59.424;13.482;2023-07-31T13:17:30;1.35;;;0.90;;
46216;SDS011;47258;59.424;13.482;2023-07-31T13:19:57;0.95;;;0.95;;
46216;SDS011;47258;59.424;13.482;2023-07-31T13:22:24;1.63;;;0.63;;
46216;SDS011;47258;59.424;13.482;2023-07-31T13:24:51;0.50;;;0.50;;
46216;SDS011;47258;59.424;13.482;2023-07-31T13:27:18;3.20;;;0.82;;
46216;SDS011;47258;59.424;13.482;2023-07-31T13:29:46;1.15;;;0.68;;
46216;SDS011;47258;59.424;13.482;2023-07-31T13:32:15;1.33;;;0.65;;
46216;SDS011;47258;59.424;13.482;2023-07-31T13:34:43;1.70;;;0.82;;
46216;SDS011;47258;59.424;13.482;2023-07-31T13:37:10;0.98;;;0.75;;
46216;SDS011;47258;59.424;13.482;2023-07-31T13:39:37;0.88;;;0.60;;
46216;SDS011;47258;59.424;13.482;2023-07-31T13:42:05;1.13;;;0.70;;
46216;SDS011;47258;59.424;13.482;2023-07-31T13:44:33;0.63;;;0.63;;
46216;SDS011;47258;59.424;13.482;2023-07-31T13:47:00;1.13;;;0.60;;
46216;SDS011;47258;59.424;13.482;2023-07-31T13:49:29;0.50;;;0.50;;
46216;SDS011;47258;59.424;13.482;2023-07-31T13:51:57;2.00;;;0.90;;
46216;SDS011;47258;59.424;13.482;2023-07-31T13:54:24;2.92;;;0.80;;
46216;SDS011;47258;59.424;13.482;2023-07-31T13:56:52;1.25;;;0.95;;
46216;SDS011;47258;59.424;13.482;2023-07-31T13:59:19;3.47;;;0.95;;
46216;SDS011;47258;59.424;13.482;2023-07-31T14:01:46;2.55;;;1.17;;
46216;SDS011;47258;59.424;13.482;2023-07-31T14:04:13;8.80;;;1.23;;
46216;SDS011;47258;59.424;13.482;2023-07-31T14:06:42;0.88;;;0.63;;
46216;SDS011;47258;59.424;13.482;2023-07-31T14:09:09;1.98;;;1.00;;
46216;SDS011;47258;59.424;13.482;2023-07-31T14:11:36;1.17;;;0.75;;
46216;SDS011;47258;59.424;13.482;2023-07-31T14:14:03;2.30;;;0.93;;
46216;SDS011;47258;59.424;13.482;2023-07-31T14:16:30;0.88;;;0.73;;
46216;SDS011;47258;59.424;13.482;2023-07-31T14:18:57;0.95;;;0.68;;
46216;SDS011;47258;59.424;13.482;2023-07-31T14:21:25;4.75;;;0.68;;
46216;SDS011;47258;59.424;13.482;2023-07-31T14:23:53;0.80;;;0.80;;
46216;SDS011;47258;59.424;13.482;2023-07-31T14:26:20;1.70;;;0.73;;
46216;SDS011;47258;59.424;13.482;2023-07-31T14:28:47;1.92;;;0.82;;
46216;SDS011;47258;59.424;13.482;2023-07-31T14:31:14;1.25;;;0.77;;
46216;SDS011;47258;59.424;13.482;2023-07-31T14:33:42;0.98;;;0.80;;
46216;SDS011;47258;59.424;13.482;2023-07-31T14:36:09;1.27;;;0.57;;
46216;SDS011;47258;59.424;13.482;2023-07-31T14:38:36;2.28;;;0.70;;
46216;SDS011;47258;59.424;13.482;2023-07-31T14:41:04;1.55;;;0.73;;
46216;SDS011;47258;59.424;13.482;2023-07-31T14:43:31;1.10;;;0.70;;
46216;SDS011;47258;59.424;13.482;2023-07-31T14:45:58;3.42;;;0.82;;
46216;SDS011;47258;59.424;13.482;2023-07-31T14:48:25;0.98;;;0.70;;
46216;SDS011;47258;59.424;13.482;2023-07-31T14:50:54;0.93;;;0.50;;